createdAt,value
2022-09-22T00:00:10.898Z,100.00
2022-09-22T00:01:13.489Z,100.00
2022-09-22T00:02:16.373Z,100.00
2022-09-22T00:03:18.877Z,100.00
2022-09-22T00:04:21.318Z,100.00
2022-09-22T00:05:23.796Z,100.00
2022-09-22T00:06:26.419Z,100.00
2022-09-22T00:07:28.860Z,100.00
2022-09-22T00:08:31.324Z,100.00
2022-09-22T00:09:33.798Z,100.00
2022-09-22T00:10:36.334Z,100.00
2022-09-22T00:11:38.818Z,100.00
2022-09-22T00:12:41.247Z,100.00
2022-09-22T00:13:43.710Z,100.00
2022-09-22T00:14:46.455Z,100.00
2022-09-22T00:15:48.887Z,100.00
2022-09-22T00:16:51.463Z,100.00
2022-09-22T00:17:53.934Z,100.00
2022-09-22T00:18:56.413Z,100.00
2022-09-22T00:19:58.846Z,100.00
2022-09-22T00:21:01.582Z,100.00
2022-09-22T00:22:04.087Z,100.00
2022-09-22T00:23:06.583Z,100.00
2022-09-22T00:24:09.047Z,100.00
2022-09-22T00:25:11.481Z,100.00
2022-09-22T00:26:14.221Z,100.00
2022-09-22T00:27:16.827Z,100.00
2022-09-22T00:28:19.335Z,100.00
2022-09-22T00:29:21.792Z,100.00
2022-09-22T00:30:24.329Z,100.00
2022-09-22T00:31:26.782Z,100.00
2022-09-22T00:32:29.287Z,100.00
2022-09-22T00:33:31.728Z,100.00
2022-09-22T00:34:34.166Z,100.00
2022-09-22T00:35:36.596Z,100.00
2022-09-22T00:36:39.163Z,100.00
2022-09-22T00:37:41.623Z,100.00
2022-09-22T00:38:44.080Z,100.00
2022-09-22T00:39:46.512Z,100.00
2022-09-22T00:40:49.156Z,100.00
2022-09-22T00:41:51.904Z,100.00
2022-09-22T00:42:54.427Z,100.00
2022-09-22T00:43:56.866Z,100.00
2022-09-22T00:44:59.314Z,100.00
2022-09-22T00:46:01.761Z,100.00
2022-09-22T00:47:04.290Z,100.00
2022-09-22T00:48:06.981Z,100.00
2022-09-22T00:49:09.424Z,100.00
2022-09-22T00:50:12.271Z,100.00
2022-09-22T00:51:14.921Z,100.00
2022-09-22T00:52:17.367Z,100.00
2022-09-22T00:53:19.840Z,100.00
2022-09-22T00:54:22.282Z,100.00
2022-09-22T00:55:24.720Z,100.00
2022-09-22T00:56:27.401Z,100.00
2022-09-22T00:57:29.872Z,100.00
2022-09-22T00:58:32.340Z,100.00
2022-09-22T00:59:34.804Z,100.00
2022-09-22T01:00:37.510Z,100.00
2022-09-22T01:01:40.185Z,100.00
2022-09-22T01:02:42.789Z,100.00
2022-09-22T01:03:45.324Z,100.00
2022-09-22T01:04:47.769Z,100.00
2022-09-22T01:05:50.215Z,100.00
2022-09-22T01:06:52.874Z,100.00
2022-09-22T01:07:55.322Z,100.00
2022-09-22T01:08:57.784Z,100.00
2022-09-22T01:10:00.237Z,100.00
2022-09-22T01:11:02.670Z,100.00
2022-09-22T01:12:05.144Z,100.00
2022-09-22T01:13:07.614Z,100.00
2022-09-22T01:14:10.088Z,100.00
2022-09-22T01:15:12.533Z,100.00
2022-09-22T01:16:15.859Z,100.00
2022-09-22T01:17:18.332Z,100.00
2022-09-22T01:18:20.775Z,100.00
2022-09-22T01:19:23.260Z,100.00
2022-09-22T01:20:25.988Z,100.00
2022-09-22T01:21:28.637Z,100.00
2022-09-22T01:22:31.108Z,100.00
2022-09-22T01:23:33.549Z,100.00
2022-09-22T01:24:36.026Z,100.00
2022-09-22T01:25:38.468Z,100.00
2022-09-22T01:26:41.113Z,100.00
2022-09-22T01:27:43.559Z,100.00
2022-09-22T01:28:46.015Z,100.00
2022-09-22T01:29:48.514Z,100.00
2022-09-22T01:30:51.376Z,100.00
2022-09-22T01:31:53.963Z,100.00
2022-09-22T01:32:56.512Z,100.00
2022-09-22T01:33:58.952Z,100.00
2022-09-22T01:35:01.951Z,100.00
2022-09-22T01:36:04.489Z,100.00
2022-09-22T01:37:06.969Z,100.00
2022-09-22T01:38:09.471Z,100.00
2022-09-22T01:39:11.914Z,100.00
2022-09-22T01:40:15.304Z,100.00
2022-09-22T01:41:17.813Z,100.00
2022-09-22T01:42:20.249Z,100.00
2022-09-22T01:43:22.709Z,100.00
2022-09-22T01:44:25.148Z,100.00
2022-09-22T01:45:27.642Z,100.00
2022-09-22T01:46:30.379Z,100.00
2022-09-22T01:47:32.861Z,100.00
2022-09-22T01:48:35.323Z,100.00
2022-09-22T01:49:37.763Z,100.00
2022-09-22T01:50:40.439Z,100.00
2022-09-22T01:51:43.241Z,100.00
2022-09-22T01:52:45.711Z,100.00
2022-09-22T01:53:48.179Z,100.00
2022-09-22T01:54:50.640Z,100.00
2022-09-22T01:55:53.162Z,100.00
2022-09-22T01:56:55.758Z,100.00
2022-09-22T01:57:58.331Z,100.00
2022-09-22T01:59:00.762Z,100.00
2022-09-22T02:00:03.414Z,100.00
2022-09-22T02:01:07.959Z,100.00
2022-09-22T02:02:10.513Z,100.00
2022-09-22T02:03:13.307Z,100.00
2022-09-22T02:04:15.749Z,100.00
2022-09-22T02:05:18.225Z,100.00
2022-09-22T02:06:21.011Z,100.00
2022-09-22T02:07:23.451Z,100.00
2022-09-22T02:08:25.895Z,100.00
2022-09-22T02:09:28.453Z,100.00
2022-09-22T02:10:31.222Z,100.00
2022-09-22T02:11:33.735Z,100.00
2022-09-22T02:12:36.150Z,100.00
2022-09-22T02:13:38.590Z,100.00
2022-09-22T02:14:41.034Z,100.00
2022-09-22T02:15:43.577Z,100.00
2022-09-22T02:16:46.555Z,100.00
2022-09-22T02:17:49.080Z,100.00
2022-09-22T02:18:51.527Z,100.00
2022-09-22T02:19:53.968Z,100.00
2022-09-22T02:20:56.541Z,100.00
2022-09-22T02:21:59.014Z,100.00
2022-09-22T02:23:01.451Z,100.00
2022-09-22T02:24:03.898Z,100.00
2022-09-22T02:25:06.349Z,100.00
2022-09-22T02:26:09.290Z,100.00
2022-09-22T02:27:11.774Z,100.00
2022-09-22T02:28:14.221Z,100.00
2022-09-22T02:29:16.676Z,100.00
2022-09-22T02:30:19.641Z,100.00
2022-09-22T02:31:22.158Z,100.00
2022-09-22T02:32:25.024Z,100.00
2022-09-22T02:33:27.462Z,100.00
2022-09-22T02:34:29.904Z,100.00
2022-09-22T02:35:32.345Z,100.00
2022-09-22T02:36:34.996Z,100.00
2022-09-22T02:37:37.474Z,100.00
2022-09-22T02:38:40.016Z,100.00
2022-09-22T02:39:42.458Z,100.00
2022-09-22T02:40:45.204Z,100.00
2022-09-22T02:41:47.746Z,100.00
2022-09-22T02:42:50.236Z,100.00
2022-09-22T02:43:52.675Z,100.00
2022-09-22T02:44:55.120Z,100.00
2022-09-22T02:45:57.909Z,100.00
2022-09-22T02:47:00.516Z,100.00
2022-09-22T02:48:03.014Z,100.00
2022-09-22T02:49:05.456Z,100.00
2022-09-22T02:50:08.511Z,100.00
2022-09-22T02:51:10.989Z,100.00
2022-09-22T02:52:13.447Z,100.00
2022-09-22T02:53:15.918Z,100.00
2022-09-22T02:54:18.391Z,100.00
2022-09-22T02:55:20.831Z,100.00
2022-09-22T02:56:23.606Z,100.00
2022-09-22T02:57:26.044Z,100.00
2022-09-22T02:58:28.520Z,100.00
2022-09-22T02:59:30.968Z,100.00
2022-09-22T03:00:33.605Z,100.00
2022-09-22T03:01:36.474Z,100.00
2022-09-22T03:02:39.051Z,100.00
2022-09-22T03:03:41.895Z,100.00
2022-09-22T03:04:44.411Z,100.00
2022-09-22T03:05:46.907Z,100.00
2022-09-22T03:06:49.503Z,100.00
2022-09-22T03:07:51.965Z,100.00
2022-09-22T03:08:54.465Z,100.00
2022-09-22T03:09:56.896Z,100.00
2022-09-22T03:10:59.451Z,100.00
2022-09-22T03:12:01.916Z,100.00
2022-09-22T03:13:19.696Z,100.00
2022-09-22T03:14:08.877Z,100.00
2022-09-22T03:15:11.647Z,100.00
2022-09-22T03:16:14.677Z,100.00
2022-09-22T03:17:17.174Z,100.00
2022-09-22T03:18:19.610Z,100.00
2022-09-22T03:19:22.090Z,100.00
2022-09-22T03:20:24.976Z,100.00
2022-09-22T03:21:27.631Z,100.00
2022-09-22T03:22:30.109Z,100.00
2022-09-22T03:23:32.559Z,100.00
2022-09-22T03:24:35.056Z,100.00
2022-09-22T03:25:37.505Z,100.00
2022-09-22T03:26:40.055Z,100.00
2022-09-22T03:27:42.504Z,100.00
2022-09-22T03:28:44.930Z,100.00
2022-09-22T03:29:47.399Z,100.00
2022-09-22T03:30:50.200Z,100.00
2022-09-22T03:31:52.803Z,100.00
2022-09-22T03:32:55.245Z,100.00
2022-09-22T03:33:57.679Z,100.00
2022-09-22T03:35:00.145Z,100.00
2022-09-22T03:36:03.158Z,100.00
2022-09-22T03:37:05.751Z,100.00
2022-09-22T03:38:08.266Z,100.00
2022-09-22T03:39:10.709Z,100.00
2022-09-22T03:40:14.052Z,100.00
2022-09-22T03:41:17.244Z,100.00
2022-09-22T03:42:19.787Z,100.00
2022-09-22T03:43:22.225Z,100.00
2022-09-22T03:44:24.682Z,100.00
2022-09-22T03:45:27.156Z,100.00
2022-09-22T03:46:29.962Z,100.00
2022-09-22T03:47:32.538Z,100.00
2022-09-22T03:48:35.298Z,100.00
2022-09-22T03:49:37.746Z,100.00
2022-09-22T03:50:40.311Z,100.00
2022-09-22T03:51:42.758Z,100.00
2022-09-22T03:52:45.227Z,100.00
2022-09-22T03:53:47.644Z,100.00
2022-09-22T03:54:50.109Z,100.00
2022-09-22T03:55:52.577Z,100.00
2022-09-22T03:56:55.315Z,100.00
2022-09-22T03:57:57.954Z,100.00
2022-09-22T03:59:00.402Z,100.00
2022-09-22T04:00:03.034Z,100.00
2022-09-22T04:01:05.540Z,100.00
2022-09-22T04:02:08.101Z,100.00
2022-09-22T04:03:10.653Z,100.00
2022-09-22T04:04:13.109Z,100.00
2022-09-22T04:05:15.744Z,100.00
2022-09-22T04:06:18.424Z,100.00
2022-09-22T04:07:20.869Z,100.00
2022-09-22T04:08:23.299Z,100.00
2022-09-22T04:09:25.738Z,100.00
2022-09-22T04:10:28.176Z,100.00
2022-09-22T04:11:30.647Z,100.00
2022-09-22T04:12:33.090Z,100.00
2022-09-22T04:13:35.541Z,100.00
2022-09-22T04:14:38.018Z,100.00
2022-09-22T04:15:40.462Z,100.00
2022-09-22T04:16:43.127Z,100.00
2022-09-22T04:17:45.675Z,100.00
2022-09-22T04:18:48.114Z,100.00
2022-09-22T04:19:50.563Z,100.00
2022-09-22T04:20:53.443Z,100.00
2022-09-22T04:21:57.315Z,100.00
2022-09-22T04:23:00.577Z,100.00
2022-09-22T04:24:03.025Z,100.00
2022-09-22T04:25:05.456Z,100.00
2022-09-22T04:26:08.198Z,100.00
2022-09-22T04:27:25.905Z,100.00
2022-09-22T04:28:15.013Z,100.00
2022-09-22T04:29:17.448Z,100.00
2022-09-22T04:30:20.077Z,100.00
2022-09-22T04:31:22.539Z,100.00
2022-09-22T04:32:25.249Z,100.00
2022-09-22T04:33:27.708Z,100.00
2022-09-22T04:34:30.194Z,100.00
2022-09-22T04:35:32.638Z,100.00
2022-09-22T04:36:35.174Z,100.00
2022-09-22T04:37:37.705Z,100.00
2022-09-22T04:38:40.161Z,100.00
2022-09-22T04:39:42.719Z,100.00
2022-09-22T04:40:45.276Z,100.00
2022-09-22T04:41:47.728Z,100.00
2022-09-22T04:42:50.454Z,100.00
2022-09-22T04:43:52.885Z,100.00
2022-09-22T04:44:55.426Z,100.00
2022-09-22T04:45:57.975Z,100.00
2022-09-22T04:47:00.690Z,100.00
2022-09-22T04:48:03.155Z,100.00
2022-09-22T04:49:05.616Z,100.00
2022-09-22T04:50:08.411Z,100.00
2022-09-22T04:51:10.906Z,100.00
2022-09-22T04:52:13.340Z,100.00
2022-09-22T04:53:15.847Z,100.00
2022-09-22T04:54:18.281Z,100.00
2022-09-22T04:55:20.730Z,100.00
2022-09-22T04:56:23.582Z,100.00
2022-09-22T04:57:26.028Z,100.00
2022-09-22T04:58:28.493Z,100.00
2022-09-22T04:59:30.929Z,100.00
2022-09-22T05:00:33.367Z,100.00
2022-09-22T05:01:35.879Z,100.00
2022-09-22T05:02:38.537Z,100.00
2022-09-22T05:03:41.054Z,100.00
2022-09-22T05:04:43.601Z,100.00
2022-09-22T05:05:46.057Z,100.00
2022-09-22T05:06:48.598Z,100.00
2022-09-22T05:07:51.345Z,100.00
2022-09-22T05:08:53.858Z,100.00
2022-09-22T05:09:56.306Z,100.00
2022-09-22T05:10:59.001Z,100.00
2022-09-22T05:12:01.503Z,100.00
2022-09-22T05:13:04.249Z,100.00
2022-09-22T05:14:06.711Z,100.00
2022-09-22T05:15:09.356Z,100.00
2022-09-22T05:16:13.698Z,100.00
2022-09-22T05:17:16.189Z,100.00
2022-09-22T05:18:18.627Z,100.00
2022-09-22T05:19:21.155Z,100.00
2022-09-22T05:20:23.930Z,100.00
2022-09-22T05:21:26.588Z,100.00
2022-09-22T05:22:29.395Z,100.00
2022-09-22T05:23:31.839Z,100.00
2022-09-22T05:24:34.314Z,100.00
2022-09-22T05:25:36.786Z,100.00
2022-09-22T05:26:39.323Z,100.00
2022-09-22T05:27:41.967Z,100.00
2022-09-22T05:28:44.425Z,100.00
2022-09-22T05:29:46.917Z,100.00
2022-09-22T05:30:49.689Z,100.00
2022-09-22T05:31:52.184Z,100.00
2022-09-22T05:32:54.611Z,100.00
2022-09-22T05:33:57.130Z,100.00
2022-09-22T05:34:59.608Z,100.00
2022-09-22T05:36:02.051Z,100.00
2022-09-22T05:37:04.513Z,100.00
2022-09-22T05:38:07.102Z,100.00
2022-09-22T05:39:09.547Z,100.00
2022-09-22T05:40:12.335Z,100.00
2022-09-22T05:41:14.871Z,100.00
2022-09-22T05:42:17.337Z,100.00
2022-09-22T05:43:19.777Z,100.00
2022-09-22T05:44:22.272Z,100.00
2022-09-22T05:45:24.800Z,100.00
2022-09-22T05:46:27.619Z,100.00
2022-09-22T05:47:30.103Z,100.00
2022-09-22T05:48:32.547Z,100.00
2022-09-22T05:49:34.990Z,100.00
2022-09-22T05:50:37.701Z,100.00
2022-09-22T05:51:40.144Z,100.00
2022-09-22T05:52:42.599Z,100.00
2022-09-22T05:53:45.038Z,100.00
2022-09-22T05:54:47.481Z,100.00
2022-09-22T05:55:49.983Z,100.00
2022-09-22T05:56:52.437Z,100.00
2022-09-22T05:57:54.894Z,100.00
2022-09-22T05:58:57.340Z,100.00
2022-09-22T05:59:59.791Z,100.00
2022-09-22T06:01:02.356Z,100.00
2022-09-22T06:02:18.073Z,100.00
2022-09-22T06:03:09.358Z,100.00
2022-09-22T06:04:11.831Z,100.00
2022-09-22T06:05:17.361Z,100.00
2022-09-22T06:06:18.878Z,100.00
2022-09-22T06:07:21.352Z,100.00
2022-09-22T06:08:23.874Z,100.00
2022-09-22T06:09:26.363Z,100.00
2022-09-22T06:10:28.798Z,100.00
2022-09-22T06:11:31.280Z,100.00
2022-09-22T06:12:33.729Z,100.00
2022-09-22T06:13:36.170Z,100.00
2022-09-22T06:14:38.622Z,100.00
2022-09-22T06:15:41.067Z,100.00
2022-09-22T06:16:43.903Z,100.00
2022-09-22T06:17:46.409Z,100.00
2022-09-22T06:18:48.857Z,100.00
2022-09-22T06:19:51.296Z,100.00
2022-09-22T06:20:53.854Z,100.00
2022-09-22T06:21:56.351Z,100.00
2022-09-22T06:22:58.791Z,100.00
2022-09-22T06:24:01.246Z,100.00
2022-09-22T06:25:03.704Z,100.00
2022-09-22T06:26:06.866Z,100.00
2022-09-22T06:27:09.361Z,100.00
2022-09-22T06:28:11.845Z,100.00
2022-09-22T06:29:14.288Z,100.00
2022-09-22T06:30:17.851Z,100.00
2022-09-22T06:31:20.349Z,100.00
2022-09-22T06:32:22.900Z,100.00
2022-09-22T06:33:25.339Z,100.00
2022-09-22T06:34:27.784Z,100.00
2022-09-22T06:35:30.231Z,100.00
2022-09-22T06:36:32.978Z,100.00
2022-09-22T06:37:35.480Z,100.00
2022-09-22T06:38:37.923Z,100.00
2022-09-22T06:39:40.510Z,100.00
2022-09-22T06:40:43.423Z,100.00
2022-09-22T06:41:46.010Z,100.00
2022-09-22T06:42:48.490Z,100.00
2022-09-22T06:43:50.947Z,100.00
2022-09-22T06:44:53.421Z,100.00
2022-09-22T06:45:55.930Z,100.00
2022-09-22T06:46:58.716Z,100.00
2022-09-22T06:48:01.223Z,100.00
2022-09-22T06:49:03.725Z,100.00
2022-09-22T06:50:06.484Z,100.00
2022-09-22T06:51:11.840Z,100.00
2022-09-22T06:52:13.309Z,100.00
2022-09-22T06:53:15.926Z,100.00
2022-09-22T06:54:18.711Z,100.00
2022-09-22T06:55:21.983Z,100.00
2022-09-22T06:56:24.463Z,100.00
2022-09-22T06:57:26.934Z,100.00
2022-09-22T06:58:29.400Z,100.00
2022-09-22T06:59:31.851Z,100.00
2022-09-22T07:00:34.770Z,100.00
2022-09-22T07:01:37.832Z,100.00
2022-09-22T07:02:40.603Z,100.00
2022-09-22T07:03:43.126Z,100.00
2022-09-22T07:04:45.562Z,100.00
2022-09-22T07:05:48.108Z,100.00
2022-09-22T07:06:50.660Z,100.00
2022-09-22T07:07:53.113Z,100.00
2022-09-22T07:08:55.696Z,100.00
2022-09-22T07:09:58.344Z,100.00
2022-09-22T07:11:01.004Z,100.00
2022-09-22T07:12:03.442Z,100.00
2022-09-22T07:13:05.900Z,100.00
2022-09-22T07:14:08.536Z,100.00
2022-09-22T07:15:11.490Z,100.00
2022-09-22T07:16:14.779Z,100.00
2022-09-22T07:17:17.297Z,100.00
2022-09-22T07:18:19.743Z,100.00
2022-09-22T07:19:22.227Z,100.00
2022-09-22T07:20:24.779Z,100.00
2022-09-22T07:21:27.297Z,100.00
2022-09-22T07:22:30.178Z,100.00
2022-09-22T07:23:50.978Z,100.00
2022-09-22T07:24:53.524Z,100.00
2022-09-22T07:25:56.148Z,100.00
2022-09-22T07:26:58.919Z,100.00
2022-09-22T07:28:01.418Z,100.00
2022-09-22T07:29:03.985Z,100.00
2022-09-22T07:30:06.973Z,99.78
2022-09-22T07:31:09.451Z,97.19
2022-09-22T07:32:12.067Z,99.55
2022-09-22T07:33:14.687Z,97.80
2022-09-22T07:34:17.139Z,96.05
2022-09-22T07:35:19.662Z,99.11
2022-09-22T07:36:22.908Z,95.74
2022-09-22T07:37:25.397Z,99.52
2022-09-22T07:38:27.854Z,96.73
2022-09-22T07:39:30.303Z,94.59
2022-09-22T07:40:33.032Z,97.00
2022-09-22T07:41:35.529Z,94.24
2022-09-22T07:42:38.017Z,89.52
2022-09-22T07:43:40.833Z,92.94
2022-09-22T07:44:44.693Z,90.91
2022-09-22T07:45:47.649Z,95.10
2022-09-22T07:46:50.297Z,94.57
2022-09-22T07:47:52.972Z,91.93
2022-09-22T07:48:55.412Z,92.07
2022-09-22T07:49:57.863Z,92.37
2022-09-22T07:51:00.660Z,91.65
2022-09-22T07:52:03.250Z,90.71
2022-09-22T07:53:05.711Z,93.00
2022-09-22T07:54:08.197Z,91.86
2022-09-22T07:55:10.653Z,91.25
2022-09-22T07:56:13.342Z,88.90
2022-09-22T07:57:15.813Z,91.30
2022-09-22T07:58:18.265Z,88.46
2022-09-22T07:59:20.719Z,90.49
2022-09-22T08:00:23.497Z,91.60
2022-09-22T08:01:26.031Z,92.07
2022-09-22T08:02:28.514Z,93.54
2022-09-22T08:03:31.031Z,93.03
2022-09-22T08:04:33.504Z,92.62
2022-09-22T08:05:35.958Z,89.58
2022-09-22T08:06:38.809Z,86.30
2022-09-22T08:07:41.266Z,90.27
2022-09-22T08:08:43.730Z,86.85
2022-09-22T08:09:46.195Z,85.85
2022-09-22T08:10:48.848Z,87.70
2022-09-22T08:11:51.351Z,89.35
2022-09-22T08:12:53.812Z,87.05
2022-09-22T08:13:56.267Z,87.29
2022-09-22T08:14:58.744Z,87.79
2022-09-22T08:16:01.262Z,88.16
2022-09-22T08:17:04.033Z,84.21
2022-09-22T08:18:06.485Z,85.52
2022-09-22T08:19:08.999Z,85.77
2022-09-22T08:20:13.273Z,85.95
2022-09-22T08:21:16.173Z,82.09
2022-09-22T08:22:18.673Z,86.77
2022-09-22T08:23:21.135Z,86.57
2022-09-22T08:24:24.077Z,83.99
2022-09-22T08:25:26.855Z,83.12
2022-09-22T08:26:29.522Z,82.19
2022-09-22T08:27:32.051Z,84.13
2022-09-22T08:28:34.771Z,82.45
2022-09-22T08:29:37.247Z,83.95
2022-09-22T08:30:39.774Z,85.34
2022-09-22T08:31:42.299Z,84.19
2022-09-22T08:32:44.846Z,79.01
2022-09-22T08:33:47.318Z,75.51
2022-09-22T08:34:49.794Z,76.74
2022-09-22T08:35:52.297Z,77.18
2022-09-22T08:36:54.964Z,78.57
2022-09-22T08:37:57.458Z,76.28
2022-09-22T08:38:59.955Z,80.39
2022-09-22T08:40:03.054Z,79.00
2022-09-22T08:41:05.592Z,77.17
2022-09-22T08:42:08.336Z,76.80
2022-09-22T08:43:10.969Z,74.92
2022-09-22T08:44:13.444Z,73.75
2022-09-22T08:45:15.912Z,72.89
2022-09-22T08:46:18.791Z,72.87
2022-09-22T08:47:21.561Z,72.65
2022-09-22T08:48:24.075Z,69.59
2022-09-22T08:49:26.528Z,68.05
2022-09-22T08:50:29.091Z,71.68
2022-09-22T08:51:31.708Z,70.23
2022-09-22T08:52:34.185Z,69.72
2022-09-22T08:53:36.665Z,71.86
2022-09-22T08:54:39.157Z,72.11
2022-09-22T08:55:41.747Z,69.70
2022-09-22T08:56:44.521Z,69.29
2022-09-22T08:57:46.977Z,66.84
2022-09-22T08:58:49.494Z,70.03
2022-09-22T08:59:51.962Z,67.59
2022-09-22T09:00:54.833Z,67.84
2022-09-22T09:01:57.313Z,68.22
2022-09-22T09:04:02.610Z,67.73
2022-09-22T09:05:05.218Z,69.15
2022-09-22T09:06:08.495Z,72.06
2022-09-22T09:07:10.955Z,71.11
2022-09-22T09:08:13.420Z,70.79
2022-09-22T09:09:15.920Z,69.96
2022-09-22T09:10:18.613Z,71.64
2022-09-22T09:11:21.091Z,69.08
2022-09-22T09:12:23.578Z,69.91
2022-09-22T09:13:26.049Z,70.29
2022-09-22T09:14:28.558Z,71.29
2022-09-22T09:15:31.015Z,73.35
2022-09-22T09:16:37.158Z,73.39
2022-09-22T09:17:38.075Z,74.17
2022-09-22T09:18:40.547Z,73.94
2022-09-22T09:19:43.033Z,74.46
2022-09-22T09:20:45.587Z,74.36
2022-09-22T09:21:48.041Z,75.33
2022-09-22T09:22:50.506Z,75.51
2022-09-22T09:26:01.943Z,72.93
2022-09-22T09:27:04.409Z,71.11
2022-09-22T09:28:06.936Z,72.78
2022-09-22T09:29:09.589Z,72.97
2022-09-22T09:30:13.011Z,71.52
2022-09-22T09:31:15.548Z,71.94
2022-09-22T09:32:18.052Z,74.53
2022-09-22T09:33:20.526Z,71.27
2022-09-22T09:34:22.981Z,70.29
2022-09-22T09:35:25.466Z,71.83
2022-09-22T09:36:28.337Z,67.93
2022-09-22T09:37:30.799Z,67.66
2022-09-22T09:38:33.246Z,69.21
2022-09-22T09:39:35.697Z,65.67
2022-09-22T09:40:38.534Z,65.14
2022-09-22T09:41:41.074Z,65.56
2022-09-22T09:42:43.536Z,62.61
2022-09-22T09:43:46.002Z,62.07
2022-09-22T09:44:48.469Z,63.14
2022-09-22T09:45:51.006Z,66.52
2022-09-22T09:46:53.466Z,64.63
2022-09-22T09:47:59.848Z,64.67
2022-09-22T09:49:01.255Z,68.55
2022-09-22T09:50:04.021Z,67.07
2022-09-22T09:51:06.551Z,65.78
2022-09-22T09:52:09.020Z,65.29
2022-09-22T09:53:11.501Z,64.36
2022-09-22T09:54:16.985Z,65.47
2022-09-22T09:55:18.344Z,64.52
2022-09-22T09:56:21.257Z,65.67
2022-09-22T09:57:27.698Z,69.35
2022-09-22T09:58:28.098Z,69.25
2022-09-22T09:59:30.574Z,68.17
2022-09-22T10:00:33.148Z,63.44
2022-09-22T10:01:35.798Z,65.85
2022-09-22T10:02:38.344Z,64.62
2022-09-22T10:03:41.302Z,64.24
2022-09-22T10:04:44.061Z,65.70
2022-09-22T10:05:46.530Z,66.88
2022-09-22T10:06:49.135Z,67.57
2022-09-22T10:07:51.597Z,68.44
2022-09-22T10:08:54.073Z,68.09
2022-09-22T10:09:56.639Z,66.32
2022-09-22T10:10:59.213Z,62.98
2022-09-22T10:12:01.718Z,64.58
2022-09-22T10:13:04.203Z,62.37
2022-09-22T10:14:06.681Z,62.96
2022-09-22T10:15:09.180Z,61.05
2022-09-22T10:16:12.620Z,61.20
2022-09-22T10:17:15.188Z,61.90
2022-09-22T10:18:17.659Z,61.97
2022-09-22T10:19:20.135Z,65.96
2022-09-22T10:20:22.890Z,65.20
2022-09-22T10:21:25.604Z,64.03
2022-09-22T10:22:28.248Z,62.62
2022-09-22T10:24:33.228Z,64.34
2022-09-22T10:25:35.703Z,66.10
2022-09-22T10:26:38.269Z,64.12
2022-09-22T10:27:40.759Z,61.99
2022-09-22T10:28:43.286Z,65.61
2022-09-22T10:29:45.748Z,64.95
2022-09-22T10:30:48.441Z,65.24
2022-09-22T10:31:50.938Z,65.56
2022-09-22T10:33:56.345Z,64.35
2022-09-22T10:34:58.807Z,66.14
2022-09-22T10:36:01.275Z,67.73
2022-09-22T10:37:03.745Z,63.98
2022-09-22T10:38:06.246Z,65.15
2022-09-22T10:39:08.785Z,64.11
2022-09-22T10:40:12.509Z,61.75
2022-09-22T10:41:15.726Z,62.30
2022-09-22T10:42:18.196Z,62.37
2022-09-22T10:43:20.711Z,59.91
2022-09-22T10:44:41.887Z,61.95
2022-09-22T10:45:27.811Z,62.13
2022-09-22T10:46:30.348Z,61.66
2022-09-22T10:47:32.903Z,61.78
2022-09-22T10:48:35.401Z,61.70
2022-09-22T10:49:37.870Z,59.02
2022-09-22T10:50:40.663Z,62.10
2022-09-22T10:51:43.170Z,64.07
2022-09-22T10:52:45.675Z,61.36
2022-09-22T10:53:48.204Z,61.54
2022-09-22T10:54:50.667Z,63.12
2022-09-22T10:55:53.128Z,61.00
2022-09-22T10:56:55.699Z,61.93
2022-09-22T10:57:58.291Z,63.09
2022-09-22T10:59:00.912Z,63.85
2022-09-22T11:00:03.380Z,64.00
2022-09-22T11:01:05.941Z,64.08
2022-09-22T11:02:08.609Z,64.37
2022-09-22T11:03:11.078Z,62.69
2022-09-22T11:04:13.649Z,65.66
2022-09-22T11:05:16.482Z,63.86
2022-09-22T11:06:19.144Z,61.76
2022-09-22T11:07:21.602Z,62.95
2022-09-22T11:08:24.443Z,62.91
2022-09-22T11:09:27.094Z,63.77
2022-09-22T11:10:29.862Z,65.68
2022-09-22T11:11:33.617Z,64.04
2022-09-22T11:12:36.704Z,61.60
2022-09-22T11:13:39.163Z,65.49
2022-09-22T11:14:42.033Z,64.62
2022-09-22T11:15:44.540Z,62.21
2022-09-22T11:16:47.387Z,63.21
2022-09-22T11:17:49.865Z,58.63
2022-09-22T11:18:52.329Z,60.95
2022-09-22T11:19:54.838Z,57.92
2022-09-22T11:20:57.743Z,59.62
2022-09-22T11:22:00.215Z,58.97
2022-09-22T11:23:02.767Z,60.19
2022-09-22T11:24:05.230Z,53.44
2022-09-22T11:25:07.729Z,56.29
2022-09-22T11:26:11.155Z,55.36
2022-09-22T11:27:13.629Z,54.26
2022-09-22T11:28:16.089Z,54.29
2022-09-22T11:29:18.563Z,51.26
2022-09-22T11:30:21.179Z,49.91
2022-09-22T11:31:23.645Z,53.84
2022-09-22T11:32:26.119Z,55.77
2022-09-22T11:33:28.632Z,54.53
2022-09-22T11:34:31.093Z,58.35
2022-09-22T11:35:33.703Z,60.33
2022-09-22T11:36:36.569Z,60.26
2022-09-22T11:37:39.045Z,51.76
2022-09-22T11:38:41.823Z,57.12
2022-09-22T11:39:44.293Z,57.66
2022-09-22T11:40:47.050Z,54.55
2022-09-22T11:41:49.859Z,53.07
2022-09-22T11:42:52.337Z,52.35
2022-09-22T11:43:57.102Z,53.40
2022-09-22T11:44:59.194Z,49.66
2022-09-22T11:46:01.724Z,51.96
2022-09-22T11:47:04.263Z,53.33
2022-09-22T11:48:06.720Z,54.60
2022-09-22T11:49:09.214Z,54.60
2022-09-22T11:50:12.791Z,47.79
2022-09-22T11:51:15.319Z,48.56
2022-09-22T11:52:17.829Z,51.79
2022-09-22T11:53:20.364Z,49.98
2022-09-22T11:54:22.832Z,48.47
2022-09-22T11:55:25.330Z,52.35
2022-09-22T11:56:27.991Z,48.00
2022-09-22T11:57:30.447Z,48.85
2022-09-22T11:58:32.935Z,51.16
2022-09-22T11:59:35.413Z,47.21
2022-09-22T12:00:38.255Z,50.16
2022-09-22T12:01:40.959Z,46.94
2022-09-22T12:02:43.540Z,47.10
2022-09-22T12:03:46.664Z,46.81
2022-09-22T12:04:49.259Z,49.11
2022-09-22T12:05:51.737Z,46.43
2022-09-22T12:06:54.642Z,48.26
2022-09-22T12:07:57.105Z,49.11
2022-09-22T12:08:59.571Z,52.30
2022-09-22T12:10:02.022Z,53.48
2022-09-22T12:11:04.841Z,51.16
2022-09-22T12:12:07.390Z,53.05
2022-09-22T12:13:09.851Z,55.50
2022-09-22T12:14:12.303Z,58.56
2022-09-22T12:15:14.752Z,60.07
2022-09-22T12:16:18.118Z,59.55
2022-09-22T12:17:22.945Z,61.19
2022-09-22T12:18:25.122Z,61.76
2022-09-22T12:19:27.575Z,62.04
2022-09-22T12:20:30.139Z,63.51
2022-09-22T12:21:32.585Z,64.48
2022-09-22T12:22:35.111Z,65.32
2022-09-22T12:23:37.570Z,63.99
2022-09-22T12:24:40.065Z,64.92
2022-09-22T12:25:48.741Z,70.79
2022-09-22T12:26:47.132Z,66.97
2022-09-22T12:27:49.620Z,70.74
2022-09-22T12:28:52.273Z,69.96
2022-09-22T12:29:54.721Z,70.83
2022-09-22T12:30:57.344Z,68.93
2022-09-22T12:31:59.960Z,71.14
2022-09-22T12:33:02.457Z,70.93
2022-09-22T12:34:04.982Z,75.52
2022-09-22T12:35:07.480Z,74.38
2022-09-22T12:36:10.547Z,76.12
2022-09-22T12:37:13.052Z,76.77
2022-09-22T12:38:15.598Z,76.56
2022-09-22T12:39:18.078Z,78.08
2022-09-22T12:40:20.962Z,76.27
2022-09-22T12:41:23.550Z,77.14
2022-09-22T12:42:26.206Z,77.98
2022-09-22T12:43:28.751Z,78.80
2022-09-22T12:44:31.208Z,78.08
2022-09-22T12:45:33.684Z,78.74
2022-09-22T12:46:36.256Z,76.79
2022-09-22T12:47:38.740Z,78.78
2022-09-22T12:48:41.241Z,78.53
2022-09-22T12:49:43.805Z,76.60
2022-09-22T12:50:46.425Z,78.36
2022-09-22T12:51:48.894Z,77.77
2022-09-22T12:52:51.356Z,78.28
2022-09-22T12:53:53.884Z,76.56
2022-09-22T12:54:56.355Z,76.59
2022-09-22T12:55:58.811Z,75.33
2022-09-22T12:57:01.533Z,76.34
2022-09-22T12:58:04.157Z,78.35
2022-09-22T12:59:06.763Z,79.17
2022-09-22T13:00:10.133Z,77.02
2022-09-22T13:01:12.649Z,78.98
2022-09-22T13:02:15.196Z,80.73
2022-09-22T13:03:17.813Z,78.39
2022-09-22T13:04:20.300Z,79.44
2022-09-22T13:05:22.880Z,76.77
2022-09-22T13:06:25.439Z,80.31
2022-09-22T13:07:27.895Z,79.75
2022-09-22T13:08:30.363Z,79.38
2022-09-22T13:09:32.908Z,79.13
2022-09-22T13:10:35.567Z,78.76
2022-09-22T13:11:38.099Z,81.52
2022-09-22T13:12:40.566Z,81.99
2022-09-22T13:13:43.022Z,81.75
2022-09-22T13:14:45.502Z,83.22
2022-09-22T13:15:47.965Z,82.58
2022-09-22T13:16:50.653Z,79.93